sensor_id;sensor_type;location;lat;lon;timestamp;pressure;altitude;pressure_sealevel;temperature
20490;BMP280;10403;54.092;12.122;2022-08-03T00:01:39;101708.22;;;23.57
20490;BMP280;10403;54.092;12.122;2022-08-03T00:04:09;101704.59;;;23.58
20490;BMP280;10403;54.092;12.122;2022-08-03T00:06:37;101706.41;;;23.58
20490;BMP280;10403;54.092;12.122;2022-08-03T00:09:05;101713.53;;;23.57
20490;BMP280;10403;54.092;12.122;2022-08-03T00:11:33;101711.81;;;23.56
20490;BMP280;10403;54.092;12.122;2022-08-03T00:14:00;101705.75;;;23.53
20490;BMP280;10403;54.092;12.122;2022-08-03T00:16:28;101712.03;;;23.52
20490;BMP280;10403;54.092;12.122;2022-08-03T00:18:55;101707.50;;;23.54
20490;BMP280;10403;54.092;12.122;2022-08-03T00:21:22;101701.28;;;23.53
20490;BMP280;10403;54.092;12.122;2022-08-03T00:23:49;101713.69;;;23.54
20490;BMP280;10403;54.092;12.122;2022-08-03T00:26:21;101709.31;;;23.53
20490;BMP280;10403;54.092;12.122;2022-08-03T00:28:49;101697.97;;;23.48
20490;BMP280;10403;54.092;12.122;2022-08-03T00:31:16;101691.13;;;23.43
20490;BMP280;10403;54.092;12.122;2022-08-03T00:34:04;101704.19;;;23.49
20490;BMP280;10403;54.092;12.122;2022-08-03T00:36:32;101694.28;;;23.51
20490;BMP280;10403;54.092;12.122;2022-08-03T00:38:59;101707.34;;;23.57
20490;BMP280;10403;54.092;12.122;2022-08-03T00:41:26;101692.41;;;23.53
20490;BMP280;10403;54.092;12.122;2022-08-03T00:43:54;101704.66;;;23.57
20490;BMP280;10403;54.092;12.122;2022-08-03T00:46:20;101698.38;;;23.58
20490;BMP280;10403;54.092;12.122;2022-08-03T00:48:50;101702.00;;;23.57
20490;BMP280;10403;54.092;12.122;2022-08-03T00:51:19;101692.19;;;23.57
20490;BMP280;10403;54.092;12.122;2022-08-03T00:53:48;101690.44;;;23.56
20490;BMP280;10403;54.092;12.122;2022-08-03T00:56:16;101684.25;;;23.56
20490;BMP280;10403;54.092;12.122;2022-08-03T00:58:44;101677.47;;;23.49
20490;BMP280;10403;54.092;12.122;2022-08-03T01:01:13;101694.06;;;23.55
20490;BMP280;10403;54.092;12.122;2022-08-03T01:03:40;101689.59;;;23.56
20490;BMP280;10403;54.092;12.122;2022-08-03T01:06:25;101671.97;;;23.52
20490;BMP280;10403;54.092;12.122;2022-08-03T01:11:37;101677.16;;;23.55
20490;BMP280;10403;54.092;12.122;2022-08-03T01:14:51;101673.72;;;23.53
20490;BMP280;10403;54.092;12.122;2022-08-03T01:17:37;101671.97;;;23.52
20490;BMP280;10403;54.092;12.122;2022-08-03T01:20:10;101672.13;;;23.49
20490;BMP280;10403;54.092;12.122;2022-08-03T01:26:12;101669.75;;;23.43
20490;BMP280;10403;54.092;12.122;2022-08-03T01:31:44;101667.59;;;23.34
20490;BMP280;10403;54.092;12.122;2022-08-03T01:34:40;101663.97;;;23.35
20490;BMP280;10403;54.092;12.122;2022-08-03T01:37:11;101671.03;;;23.36
20490;BMP280;10403;54.092;12.122;2022-08-03T01:39:43;101665.78;;;23.34
20490;BMP280;10403;54.092;12.122;2022-08-03T01:42:13;101663.19;;;23.33
20490;BMP280;10403;54.092;12.122;2022-08-03T01:44:45;101662.25;;;23.34
20490;BMP280;10403;54.092;12.122;2022-08-03T01:47:18;101661.44;;;23.32
20490;BMP280;10403;54.092;12.122;2022-08-03T01:49:48;101659.91;;;23.28
20490;BMP280;10403;54.092;12.122;2022-08-03T01:52:21;101657.38;;;23.24
20490;BMP280;10403;54.092;12.122;2022-08-03T01:54:51;101648.84;;;23.18
20490;BMP280;10403;54.092;12.122;2022-08-03T01:57:21;101657.53;;;23.21
20490;BMP280;10403;54.092;12.122;2022-08-03T01:59:51;101650.50;;;23.20
20490;BMP280;10403;54.092;12.122;2022-08-03T02:02:19;101646.47;;;23.12
20490;BMP280;10403;54.092;12.122;2022-08-03T02:05:02;101648.13;;;23.14
20490;BMP280;10403;54.092;12.122;2022-08-03T02:07:32;101648.28;;;23.11
20490;BMP280;10403;54.092;12.122;2022-08-03T02:10:03;101650.28;;;23.08
20490;BMP280;10403;54.092;12.122;2022-08-03T02:12:35;101651.28;;;23.05
20490;BMP280;10403;54.092;12.122;2022-08-03T02:15:06;101648.88;;;23.01
20490;BMP280;10403;54.092;12.122;2022-08-03T02:17:34;101642.97;;;22.94
20490;BMP280;10403;54.092;12.122;2022-08-03T02:20:10;101651.75;;;22.96
20490;BMP280;10403;54.092;12.122;2022-08-03T02:22:43;101653.63;;;22.94
20490;BMP280;10403;54.092;12.122;2022-08-03T02:25:14;101659.16;;;22.91
20490;BMP280;10403;54.092;12.122;2022-08-03T02:27:57;101640.84;;;22.83
20490;BMP280;10403;54.092;12.122;2022-08-03T02:30:34;101650.50;;;22.86
20490;BMP280;10403;54.092;12.122;2022-08-03T02:33:17;101650.66;;;22.83
20490;BMP280;10403;54.092;12.122;2022-08-03T02:35:47;101643.75;;;22.79
20490;BMP280;10403;54.092;12.122;2022-08-03T02:38:19;101646.34;;;22.80
20490;BMP280;10403;54.092;12.122;2022-08-03T02:40:49;101634.31;;;22.72
20490;BMP280;10403;54.092;12.122;2022-08-03T02:43:20;101642.16;;;22.75
20490;BMP280;10403;54.092;12.122;2022-08-03T02:45:50;101643.03;;;22.75
20490;BMP280;10403;54.092;12.122;2022-08-03T02:48:28;101641.34;;;22.73
20490;BMP280;10403;54.092;12.122;2022-08-03T02:50:58;101644.00;;;22.73
20490;BMP280;10403;54.092;12.122;2022-08-03T02:53:29;101643.16;;;22.72
20490;BMP280;10403;54.092;12.122;2022-08-03T02:55:58;101638.84;;;22.70
20490;BMP280;10403;54.092;12.122;2022-08-03T02:58:27;101638.94;;;22.68
20490;BMP280;10403;54.092;12.122;2022-08-03T03:00:56;101631.25;;;22.62
20490;BMP280;10403;54.092;12.122;2022-08-03T03:03:24;101642.59;;;22.66
20490;BMP280;10403;54.092;12.122;2022-08-03T03:05:55;101635.53;;;22.65
20490;BMP280;10403;54.092;12.122;2022-08-03T03:08:24;101644.47;;;22.64
20490;BMP280;10403;54.092;12.122;2022-08-03T03:10:59;101640.19;;;22.61
20490;BMP280;10403;54.092;12.122;2022-08-03T03:13:29;101638.53;;;22.59
20490;BMP280;10403;54.092;12.122;2022-08-03T03:16:04;101641.19;;;22.59
20490;BMP280;10403;54.092;12.122;2022-08-03T03:18:33;101638.59;;;22.57
20490;BMP280;10403;54.092;12.122;2022-08-03T03:21:03;101636.00;;;22.56
20490;BMP280;10403;54.092;12.122;2022-08-03T03:23:34;101637.88;;;22.53
20490;BMP280;10403;54.092;12.122;2022-08-03T03:26:03;101639.78;;;22.51
20490;BMP280;10403;54.092;12.122;2022-08-03T03:28:32;101635.44;;;22.49
20490;BMP280;10403;54.092;12.122;2022-08-03T03:31:05;101633.00;;;22.44
20490;BMP280;10403;54.092;12.122;2022-08-03T03:33:36;101636.47;;;22.46
20490;BMP280;10403;54.092;12.122;2022-08-03T03:36:05;101636.59;;;22.43
20490;BMP280;10403;54.092;12.122;2022-08-03T03:38:33;101640.22;;;22.42
20490;BMP280;10403;54.092;12.122;2022-08-03T03:41:00;101634.09;;;22.40
20490;BMP280;10403;54.092;12.122;2022-08-03T03:43:28;101636.78;;;22.40
20490;BMP280;10403;54.092;12.122;2022-08-03T03:45:57;101641.16;;;22.41
20490;BMP280;10403;54.092;12.122;2022-08-03T03:48:25;101630.72;;;22.37
20490;BMP280;10403;54.092;12.122;2022-08-03T03:50:52;101633.16;;;22.41
20490;BMP280;10403;54.092;12.122;2022-08-03T03:53:20;101636.47;;;22.46
20490;BMP280;10403;54.092;12.122;2022-08-03T03:55:47;101638.97;;;22.49
20490;BMP280;10403;54.092;12.122;2022-08-03T03:58:31;101645.13;;;22.51
20490;BMP280;10403;54.092;12.122;2022-08-03T04:00:59;101634.28;;;22.55
20490;BMP280;10403;54.092;12.122;2022-08-03T04:03:26;101629.50;;;22.61
20490;BMP280;10403;54.092;12.122;2022-08-03T04:05:53;101637.13;;;22.69
20490;BMP280;10403;54.092;12.122;2022-08-03T04:08:39;101645.22;;;22.84
20490;BMP280;10403;54.092;12.122;2022-08-03T04:11:33;101637.00;;;22.89
20490;BMP280;10403;54.092;12.122;2022-08-03T04:14:21;101645.59;;;23.11
20490;BMP280;10403;54.092;12.122;2022-08-03T04:16:54;101639.00;;;23.36
20490;BMP280;10403;54.092;12.122;2022-08-03T04:19:36;101637.72;;;23.60
20490;BMP280;10403;54.092;12.122;2022-08-03T04:22:11;101639.19;;;23.81
20490;BMP280;10403;54.092;12.122;2022-08-03T04:24:49;101633.59;;;24.02
20490;BMP280;10403;54.092;12.122;2022-08-03T04:27:23;101644.84;;;24.24
20490;BMP280;10403;54.092;12.122;2022-08-03T04:29:54;101631.38;;;24.41
20490;BMP280;10403;54.092;12.122;2022-08-03T04:32:23;101639.09;;;24.61
20490;BMP280;10403;54.092;12.122;2022-08-03T04:34:54;101646.09;;;24.64
20490;BMP280;10403;54.092;12.122;2022-08-03T04:37:42;101637.03;;;24.66
20490;BMP280;10403;54.092;12.122;2022-08-03T04:40:24;101634.31;;;24.82
20490;BMP280;10403;54.092;12.122;2022-08-03T04:42:57;101638.75;;;24.97
20490;BMP280;10403;54.092;12.122;2022-08-03T04:45:27;101641.31;;;25.15
20490;BMP280;10403;54.092;12.122;2022-08-03T04:47:56;101642.38;;;25.26
20490;BMP280;10403;54.092;12.122;2022-08-03T04:50:24;101637.84;;;25.27
20490;BMP280;10403;54.092;12.122;2022-08-03T04:52:54;101642.00;;;25.32
20490;BMP280;10403;54.092;12.122;2022-08-03T04:55:30;101650.88;;;25.33
20490;BMP280;10403;54.092;12.122;2022-08-03T04:57:59;101646.75;;;25.27
20490;BMP280;10403;54.092;12.122;2022-08-03T05:00:27;101637.66;;;25.16
20490;BMP280;10403;54.092;12.122;2022-08-03T05:02:55;101645.75;;;25.00
20490;BMP280;10403;54.092;12.122;2022-08-03T05:05:23;101648.03;;;24.92
20490;BMP280;10403;54.092;12.122;2022-08-03T05:07:50;101639.53;;;24.99
20490;BMP280;10403;54.092;12.122;2022-08-03T05:10:18;101643.78;;;25.18
20490;BMP280;10403;54.092;12.122;2022-08-03T05:12:47;101647.16;;;25.35
20490;BMP280;10403;54.092;12.122;2022-08-03T05:15:14;101647.63;;;25.42
20490;BMP280;10403;54.092;12.122;2022-08-03T05:17:42;101645.63;;;25.31
20490;BMP280;10403;54.092;12.122;2022-08-03T05:20:10;101650.00;;;25.18
20490;BMP280;10403;54.092;12.122;2022-08-03T05:22:37;101651.94;;;25.16
20490;BMP280;10403;54.092;12.122;2022-08-03T05:25:05;101645.31;;;25.22
20490;BMP280;10403;54.092;12.122;2022-08-03T05:27:32;101645.22;;;25.37
20490;BMP280;10403;54.092;12.122;2022-08-03T05:29:59;101643.91;;;25.59
20490;BMP280;10403;54.092;12.122;2022-08-03T05:32:46;101648.25;;;25.75
20490;BMP280;10403;54.092;12.122;2022-08-03T05:35:13;101648.31;;;25.88
20490;BMP280;10403;54.092;12.122;2022-08-03T05:38:02;101636.03;;;25.98
20490;BMP280;10403;54.092;12.122;2022-08-03T05:40:29;101644.25;;;26.09
20490;BMP280;10403;54.092;12.122;2022-08-03T05:42:58;101645.88;;;26.12
20490;BMP280;10403;54.092;12.122;2022-08-03T05:45:25;101643.84;;;26.15
20490;BMP280;10403;54.092;12.122;2022-08-03T05:47:54;101652.56;;;26.19
20490;BMP280;10403;54.092;12.122;2022-08-03T05:50:22;101651.50;;;26.22
20490;BMP280;10403;54.092;12.122;2022-08-03T05:52:49;101646.72;;;26.27
20490;BMP280;10403;54.092;12.122;2022-08-03T05:55:17;101639.59;;;26.26
20490;BMP280;10403;54.092;12.122;2022-08-03T05:57:45;101646.25;;;26.34
20490;BMP280;10403;54.092;12.122;2022-08-03T06:00:15;101642.47;;;26.37
20490;BMP280;10403;54.092;12.122;2022-08-03T06:02:43;101641.31;;;26.41
20490;BMP280;10403;54.092;12.122;2022-08-03T06:05:10;101645.50;;;26.45
20490;BMP280;10403;54.092;12.122;2022-08-03T06:07:37;101636.50;;;26.46
20490;BMP280;10403;54.092;12.122;2022-08-03T06:10:05;101642.44;;;26.51
20490;BMP280;10403;54.092;12.122;2022-08-03T06:12:52;101642.78;;;26.59
20490;BMP280;10403;54.092;12.122;2022-08-03T06:15:19;101631.09;;;26.60
20490;BMP280;10403;54.092;12.122;2022-08-03T06:17:50;101632.94;;;26.72
20490;BMP280;10403;54.092;12.122;2022-08-03T06:20:19;101639.41;;;26.82
20490;BMP280;10403;54.092;12.122;2022-08-03T06:22:48;101633.63;;;26.88
20490;BMP280;10403;54.092;12.122;2022-08-03T06:25:26;101640.53;;;26.93
20490;BMP280;10403;54.092;12.122;2022-08-03T06:27:53;101635.16;;;26.93
20490;BMP280;10403;54.092;12.122;2022-08-03T06:30:20;101636.47;;;27.00
20490;BMP280;10403;54.092;12.122;2022-08-03T06:32:47;101636.25;;;27.03
20490;BMP280;10403;54.092;12.122;2022-08-03T06:35:18;101630.88;;;27.03
20490;BMP280;10403;54.092;12.122;2022-08-03T06:37:48;101646.88;;;27.17
20490;BMP280;10403;54.092;12.122;2022-08-03T06:40:19;101633.69;;;27.26
20490;BMP280;10403;54.092;12.122;2022-08-03T06:42:50;101648.28;;;27.35
20490;BMP280;10403;54.092;12.122;2022-08-03T06:45:17;101649.81;;;27.39
20490;BMP280;10403;54.092;12.122;2022-08-03T06:47:44;101642.25;;;27.44
20490;BMP280;10403;54.092;12.122;2022-08-03T06:50:11;101645.09;;;27.55
20490;BMP280;10403;54.092;12.122;2022-08-03T06:52:44;101640.78;;;27.66
20490;BMP280;10403;54.092;12.122;2022-08-03T06:55:11;101642.03;;;27.73
20490;BMP280;10403;54.092;12.122;2022-08-03T06:57:38;101644.31;;;27.79
20490;BMP280;10403;54.092;12.122;2022-08-03T07:00:06;101625.50;;;27.79
20490;BMP280;10403;54.092;12.122;2022-08-03T07:02:39;101639.03;;;27.90
20490;BMP280;10403;54.092;12.122;2022-08-03T07:05:08;101641.03;;;27.99
20490;BMP280;10403;54.092;12.122;2022-08-03T07:07:36;101637.66;;;28.08
20490;BMP280;10403;54.092;12.122;2022-08-03T07:10:05;101632.59;;;28.16
20490;BMP280;10403;54.092;12.122;2022-08-03T07:12:34;101640.00;;;28.25
20490;BMP280;10403;54.092;12.122;2022-08-03T07:15:03;101635.88;;;28.32
20490;BMP280;10403;54.092;12.122;2022-08-03T07:17:35;101637.53;;;28.46
20490;BMP280;10403;54.092;12.122;2022-08-03T07:20:06;101639.66;;;28.54
20490;BMP280;10403;54.092;12.122;2022-08-03T07:22:34;101639.19;;;28.60
20490;BMP280;10403;54.092;12.122;2022-08-03T07:25:02;101643.16;;;28.67
20490;BMP280;10403;54.092;12.122;2022-08-03T07:27:29;101648.63;;;28.78
20490;BMP280;10403;54.092;12.122;2022-08-03T07:29:57;101638.97;;;28.87
20490;BMP280;10403;54.092;12.122;2022-08-03T07:32:25;101648.91;;;28.97
20490;BMP280;10403;54.092;12.122;2022-08-03T07:34:52;101640.22;;;29.05
20490;BMP280;10403;54.092;12.122;2022-08-03T07:37:28;101639.50;;;29.14
20490;BMP280;10403;54.092;12.122;2022-08-03T07:39:55;101643.31;;;29.23
20490;BMP280;10403;54.092;12.122;2022-08-03T07:42:28;101638.06;;;29.32
20490;BMP280;10403;54.092;12.122;2022-08-03T07:44:58;101641.91;;;29.41
20490;BMP280;10403;54.092;12.122;2022-08-03T07:47:29;101643.28;;;29.47
20490;BMP280;10403;54.092;12.122;2022-08-03T07:50:05;101636.91;;;29.48
20490;BMP280;10403;54.092;12.122;2022-08-03T07:52:37;101634.31;;;29.46
20490;BMP280;10403;54.092;12.122;2022-08-03T07:55:24;101635.03;;;29.48
20490;BMP280;10403;54.092;12.122;2022-08-03T07:58:19;101635.41;;;29.55
20490;BMP280;10403;54.092;12.122;2022-08-03T08:00:51;101637.03;;;29.57
20490;BMP280;10403;54.092;12.122;2022-08-03T08:03:21;101627.44;;;29.64
20490;BMP280;10403;54.092;12.122;2022-08-03T08:05:49;101639.44;;;29.71
20490;BMP280;10403;54.092;12.122;2022-08-03T08:08:16;101636.25;;;29.77
20490;BMP280;10403;54.092;12.122;2022-08-03T08:10:43;101630.72;;;29.79
20490;BMP280;10403;54.092;12.122;2022-08-03T08:13:24;101628.91;;;29.79
20490;BMP280;10403;54.092;12.122;2022-08-03T08:15:51;101620.22;;;29.76
20490;BMP280;10403;54.092;12.122;2022-08-03T08:18:19;101627.69;;;29.84
20490;BMP280;10403;54.092;12.122;2022-08-03T08:20:46;101622.75;;;29.89
20490;BMP280;10403;54.092;12.122;2022-08-03T08:23:13;101631.25;;;29.95
20490;BMP280;10403;54.092;12.122;2022-08-03T08:26:00;101628.91;;;30.02
20490;BMP280;10403;54.092;12.122;2022-08-03T08:28:28;101626.94;;;30.04
20490;BMP280;10403;54.092;12.122;2022-08-03T08:31:01;101627.16;;;30.12
20490;BMP280;10403;54.092;12.122;2022-08-03T08:33:30;101623.94;;;30.18
20490;BMP280;10403;54.092;12.122;2022-08-03T08:36:20;101616.47;;;30.22
20490;BMP280;10403;54.092;12.122;2022-08-03T08:38:48;101598.56;;;30.09
20490;BMP280;10403;54.092;12.122;2022-08-03T08:41:16;101613.03;;;30.20
20490;BMP280;10403;54.092;12.122;2022-08-03T08:43:46;101610.44;;;30.18
20490;BMP280;10403;54.092;12.122;2022-08-03T08:46:17;101601.03;;;30.12
20490;BMP280;10403;54.092;12.122;2022-08-03T08:48:53;101613.25;;;30.28
20490;BMP280;10403;54.092;12.122;2022-08-03T08:51:30;101612.72;;;30.45
20490;BMP280;10403;54.092;12.122;2022-08-03T08:54:22;101616.22;;;30.57
20490;BMP280;10403;54.092;12.122;2022-08-03T08:56:52;101613.75;;;30.65
20490;BMP280;10403;54.092;12.122;2022-08-03T08:59:23;101624.03;;;30.71
20490;BMP280;10403;54.092;12.122;2022-08-03T09:01:50;101613.22;;;30.71
20490;BMP280;10403;54.092;12.122;2022-08-03T09:04:22;101620.34;;;30.72
20490;BMP280;10403;54.092;12.122;2022-08-03T09:06:51;101616.91;;;30.70
20490;BMP280;10403;54.092;12.122;2022-08-03T09:09:41;101609.41;;;30.73
20490;BMP280;10403;54.092;12.122;2022-08-03T09:12:29;101593.31;;;30.72
20490;BMP280;10403;54.092;12.122;2022-08-03T09:15:25;101603.66;;;30.87
20490;BMP280;10403;54.092;12.122;2022-08-03T09:17:55;101616.50;;;30.95
20490;BMP280;10403;54.092;12.122;2022-08-03T09:20:25;101609.25;;;30.96
20490;BMP280;10403;54.092;12.122;2022-08-03T09:23:04;101603.72;;;30.97
20490;BMP280;10403;54.092;12.122;2022-08-03T09:25:57;101598.06;;;31.00
20490;BMP280;10403;54.092;12.122;2022-08-03T09:28:34;101607.84;;;31.12
20490;BMP280;10403;54.092;12.122;2022-08-03T09:31:38;101607.31;;;31.18
20490;BMP280;10403;54.092;12.122;2022-08-03T09:34:13;101609.19;;;31.27
20490;BMP280;10403;54.092;12.122;2022-08-03T09:36:47;101605.97;;;31.34
20490;BMP280;10403;54.092;12.122;2022-08-03T09:39:24;101607.41;;;31.38
20490;BMP280;10403;54.092;12.122;2022-08-03T09:42:14;101599.28;;;31.38
20490;BMP280;10403;54.092;12.122;2022-08-03T09:44:50;101599.28;;;31.38
20490;BMP280;10403;54.092;12.122;2022-08-03T09:47:33;101599.53;;;31.35
20490;BMP280;10403;54.092;12.122;2022-08-03T09:50:11;101579.72;;;31.24
20490;BMP280;10403;54.092;12.122;2022-08-03T09:52:40;101592.03;;;31.38
20490;BMP280;10403;54.092;12.122;2022-08-03T09:55:19;101605.41;;;31.40
20490;BMP280;10403;54.092;12.122;2022-08-03T09:58:07;101589.91;;;31.42
20490;BMP280;10403;54.092;12.122;2022-08-03T10:03:22;101585.28;;;31.53
20490;BMP280;10403;54.092;12.122;2022-08-03T10:05:49;101596.66;;;31.57
20490;BMP280;10403;54.092;12.122;2022-08-03T10:08:22;101589.25;;;31.59
20490;BMP280;10403;54.092;12.122;2022-08-03T10:10:51;101584.47;;;31.63
20490;BMP280;10403;54.092;12.122;2022-08-03T10:13:21;101578.50;;;31.69
20490;BMP280;10403;54.092;12.122;2022-08-03T10:15:49;101569.13;;;31.73
20490;BMP280;10403;54.092;12.122;2022-08-03T10:18:36;101578.78;;;31.75
20490;BMP280;10403;54.092;12.122;2022-08-03T10:21:07;101576.81;;;31.77
20490;BMP280;10403;54.092;12.122;2022-08-03T10:23:37;101569.41;;;31.79
20490;BMP280;10403;54.092;12.122;2022-08-03T10:26:07;101569.16;;;31.82
20490;BMP280;10403;54.092;12.122;2022-08-03T10:28:46;101559.84;;;31.75
20490;BMP280;10403;54.092;12.122;2022-08-03T10:31:17;101563.28;;;31.77
20490;BMP280;10403;54.092;12.122;2022-08-03T10:33:50;101562.28;;;31.78
20490;BMP280;10403;54.092;12.122;2022-08-03T10:36:23;101568.97;;;31.84
20490;BMP280;10403;54.092;12.122;2022-08-03T10:38:54;101555.78;;;31.90
20490;BMP280;10403;54.092;12.122;2022-08-03T10:41:30;101524.13;;;31.72
20490;BMP280;10403;54.092;12.122;2022-08-03T10:44:09;101572.56;;;31.94
20490;BMP280;10403;54.092;12.122;2022-08-03T10:46:38;101566.16;;;31.95
20490;BMP280;10403;54.092;12.122;2022-08-03T10:49:18;101555.06;;;31.98
20490;BMP280;10403;54.092;12.122;2022-08-03T10:52:03;101511.16;;;31.75
20490;BMP280;10403;54.092;12.122;2022-08-03T10:54:44;101562.19;;;32.09
20490;BMP280;10403;54.092;12.122;2022-08-03T10:57:48;101558.19;;;32.13
20490;BMP280;10403;54.092;12.122;2022-08-03T11:00:23;101567.38;;;32.21
20490;BMP280;10403;54.092;12.122;2022-08-03T11:03:17;101560.81;;;32.24
20490;BMP280;10403;54.092;12.122;2022-08-03T11:05:47;101560.94;;;32.22
20490;BMP280;10403;54.092;12.122;2022-08-03T11:08:33;101550.97;;;32.23
20490;BMP280;10403;54.092;12.122;2022-08-03T11:14:05;101551.53;;;32.26
20490;BMP280;10403;54.092;12.122;2022-08-03T11:16:48;101563.22;;;32.27
20490;BMP280;10403;54.092;12.122;2022-08-03T11:19:18;101552.41;;;32.27
20490;BMP280;10403;54.092;12.122;2022-08-03T11:21:57;101554.97;;;32.28
20490;BMP280;10403;54.092;12.122;2022-08-03T11:35:29;101547.69;;;32.48
20490;BMP280;10403;54.092;12.122;2022-08-03T11:38:04;101530.00;;;32.44
20490;BMP280;10403;54.092;12.122;2022-08-03T11:40:50;101548.41;;;32.60
20490;BMP280;10403;54.092;12.122;2022-08-03T11:46:06;101542.09;;;32.69
20490;BMP280;10403;54.092;12.122;2022-08-03T11:48:36;101530.69;;;32.65
20490;BMP280;10403;54.092;12.122;2022-08-03T11:51:07;101522.69;;;32.64
20490;BMP280;10403;54.092;12.122;2022-08-03T11:53:44;101525.97;;;32.67
20490;BMP280;10403;54.092;12.122;2022-08-03T11:56:13;101542.09;;;32.79
20490;BMP280;10403;54.092;12.122;2022-08-03T11:58:54;101534.97;;;32.78
20490;BMP280;10403;54.092;12.122;2022-08-03T12:01:42;101536.69;;;32.79
20490;BMP280;10403;54.092;12.122;2022-08-03T12:04:09;101544.38;;;32.83
20490;BMP280;10403;54.092;12.122;2022-08-03T12:06:37;101534.38;;;32.84
20490;BMP280;10403;54.092;12.122;2022-08-03T12:09:23;101547.19;;;32.91
20490;BMP280;10403;54.092;12.122;2022-08-03T12:11:50;101539.78;;;32.93
20490;BMP280;10403;54.092;12.122;2022-08-03T12:14:28;101537.19;;;32.92
20490;BMP280;10403;54.092;12.122;2022-08-03T12:17:16;101544.91;;;32.96
20490;BMP280;10403;54.092;12.122;2022-08-03T12:19:44;101543.75;;;32.99
20490;BMP280;10403;54.092;12.122;2022-08-03T12:22:13;101537.50;;;32.98
20490;BMP280;10403;54.092;12.122;2022-08-03T12:24:44;101518.66;;;32.97
20490;BMP280;10403;54.092;12.122;2022-08-03T12:27:26;101528.59;;;33.06
20490;BMP280;10403;54.092;12.122;2022-08-03T12:29:58;101524.91;;;33.07
20490;BMP280;10403;54.092;12.122;2022-08-03T12:32:27;101522.19;;;33.07
20490;BMP280;10403;54.092;12.122;2022-08-03T12:34:57;101517.50;;;32.99
20490;BMP280;10403;54.092;12.122;2022-08-03T12:37:27;101515.47;;;33.01
20490;BMP280;10403;54.092;12.122;2022-08-03T12:39:59;101526.50;;;33.00
20490;BMP280;10403;54.092;12.122;2022-08-03T12:42:38;101528.63;;;32.96
20490;BMP280;10403;54.092;12.122;2022-08-03T12:45:23;101527.34;;;33.00
20490;BMP280;10403;54.092;12.122;2022-08-03T12:48:01;101525.66;;;32.99
20490;BMP280;10403;54.092;12.122;2022-08-03T12:53:01;101525.78;;;32.98
20490;BMP280;10403;54.092;12.122;2022-08-03T12:55:32;101514.63;;;33.01
20490;BMP280;10403;54.092;12.122;2022-08-03T12:58:34;101517.63;;;33.07
20490;BMP280;10403;54.092;12.122;2022-08-03T13:01:05;101501.50;;;33.06
20490;BMP280;10403;54.092;12.122;2022-08-03T13:03:49;101520.56;;;33.14
20490;BMP280;10403;54.092;12.122;2022-08-03T13:06:24;101516.56;;;33.18
20490;BMP280;10403;54.092;12.122;2022-08-03T13:09:04;101517.72;;;33.25
20490;BMP280;10403;54.092;12.122;2022-08-03T13:11:32;101526.56;;;33.27
20490;BMP280;10403;54.092;12.122;2022-08-03T13:14:19;101507.84;;;33.24
20490;BMP280;10403;54.092;12.122;2022-08-03T13:16:48;101523.38;;;33.32
20490;BMP280;10403;54.092;12.122;2022-08-03T13:19:15;101514.56;;;33.30
20490;BMP280;10403;54.092;12.122;2022-08-03T13:21:43;101512.84;;;33.29
20490;BMP280;10403;54.092;12.122;2022-08-03T13:24:32;101517.38;;;33.38
20490;BMP280;10403;54.092;12.122;2022-08-03T13:26:59;101513.66;;;33.39
20490;BMP280;10403;54.092;12.122;2022-08-03T13:29:48;101515.91;;;33.43
20490;BMP280;10403;54.092;12.122;2022-08-03T13:32:15;101522.31;;;33.42
20490;BMP280;10403;54.092;12.122;2022-08-03T13:34:42;101519.31;;;33.46
20490;BMP280;10403;54.092;12.122;2022-08-03T13:37:10;101518.16;;;33.48
20490;BMP280;10403;54.092;12.122;2022-08-03T13:39:38;101522.13;;;33.54
20490;BMP280;10403;54.092;12.122;2022-08-03T13:42:35;101512.97;;;33.55
20490;BMP280;10403;54.092;12.122;2022-08-03T13:45:04;101513.22;;;33.61
20490;BMP280;10403;54.092;12.122;2022-08-03T13:47:31;101512.91;;;33.64
20490;BMP280;10403;54.092;12.122;2022-08-03T13:49:58;101514.34;;;33.68
20490;BMP280;10403;54.092;12.122;2022-08-03T13:52:31;101510.06;;;33.66
20490;BMP280;10403;54.092;12.122;2022-08-03T13:55:00;101508.78;;;33.60
20490;BMP280;10403;54.092;12.122;2022-08-03T13:57:28;101517.78;;;33.61
20490;BMP280;10403;54.092;12.122;2022-08-03T14:00:16;101499.41;;;33.55
20490;BMP280;10403;54.092;12.122;2022-08-03T14:03:00;101508.34;;;33.65
20490;BMP280;10403;54.092;12.122;2022-08-03T14:05:38;101497.19;;;33.68
20490;BMP280;10403;54.092;12.122;2022-08-03T14:08:06;101498.31;;;33.75
20490;BMP280;10403;54.092;12.122;2022-08-03T14:10:37;101503.09;;;33.81
20490;BMP280;10403;54.092;12.122;2022-08-03T14:13:05;101494.97;;;33.81
20490;BMP280;10403;54.092;12.122;2022-08-03T14:15:32;101502.41;;;33.79
20490;BMP280;10403;54.092;12.122;2022-08-03T14:18:08;101492.34;;;33.62
20490;BMP280;10403;54.092;12.122;2022-08-03T14:20:44;101498.31;;;33.48
20490;BMP280;10403;54.092;12.122;2022-08-03T14:23:18;101496.53;;;33.38
20490;BMP280;10403;54.092;12.122;2022-08-03T14:25:45;101511.66;;;33.31
20490;BMP280;10403;54.092;12.122;2022-08-03T14:28:21;101494.84;;;33.28
20490;BMP280;10403;54.092;12.122;2022-08-03T14:30:50;101505.38;;;33.31
20490;BMP280;10403;54.092;12.122;2022-08-03T14:33:18;101495.97;;;33.35
20490;BMP280;10403;54.092;12.122;2022-08-03T14:35:46;101497.91;;;33.42
20490;BMP280;10403;54.092;12.122;2022-08-03T14:38:14;101498.06;;;33.41
20490;BMP280;10403;54.092;12.122;2022-08-03T14:40:41;101503.84;;;33.28
20490;BMP280;10403;54.092;12.122;2022-08-03T14:43:08;101511.69;;;33.22
20490;BMP280;10403;54.092;12.122;2022-08-03T14:45:35;101511.19;;;33.08
20490;BMP280;10403;54.092;12.122;2022-08-03T14:48:03;101502.81;;;32.92